createdAt,value
2023-05-08T00:00:22.261Z,4.05
2023-05-08T00:02:50.136Z,3.15
2023-05-08T00:05:18.083Z,2.97
2023-05-08T00:07:46.236Z,3.67
2023-05-08T00:10:14.745Z,1.77
2023-05-08T00:12:43.422Z,3.35
2023-05-08T00:15:11.279Z,2.35
2023-05-08T00:17:39.023Z,2.53
2023-05-08T00:20:09.193Z,2.42
2023-05-08T00:22:40.551Z,3.10
2023-05-08T00:27:50.937Z,2.33
2023-05-08T00:30:19.473Z,2.35
2023-05-08T00:32:47.568Z,3.03
2023-05-08T00:35:16.600Z,1.80
2023-05-08T00:37:44.511Z,2.58
2023-05-08T00:40:12.821Z,3.75
2023-05-08T00:42:41.491Z,5.07
2023-05-08T00:45:10.013Z,3.20
2023-05-08T00:47:39.117Z,3.20
2023-05-08T00:50:07.507Z,6.97
2023-05-08T00:52:37.781Z,4.53
2023-05-08T00:55:07.230Z,5.75
2023-05-08T00:57:35.850Z,4.47
2023-05-08T01:00:05.786Z,3.60
2023-05-08T01:02:35.642Z,4.85
2023-05-08T01:05:04.613Z,4.50
2023-05-08T01:07:33.454Z,3.83
2023-05-08T01:10:01.271Z,3.90
2023-05-08T01:12:47.309Z,2.97
2023-05-08T01:15:28.943Z,4.18
2023-05-08T01:18:17.806Z,3.80
2023-05-08T01:21:24.523Z,3.10
2023-05-08T01:24:23.214Z,3.42
2023-05-08T01:27:02.234Z,4.07
2023-05-08T01:29:36.375Z,3.03
2023-05-08T01:32:19.549Z,2.17
2023-05-08T01:35:17.198Z,3.38
2023-05-08T01:38:00.274Z,2.50
2023-05-08T01:40:52.778Z,2.90
2023-05-08T01:43:35.833Z,2.97
2023-05-08T01:46:10.207Z,2.83
2023-05-08T01:48:50.217Z,3.33
2023-05-08T01:51:22.940Z,2.72
2023-05-08T01:54:00.893Z,3.72
2023-05-08T01:56:31.202Z,2.78
2023-05-08T01:59:02.782Z,3.65
2023-05-08T02:01:35.211Z,2.90
2023-05-08T02:04:06.592Z,3.55
2023-05-08T02:06:36.578Z,5.15
2023-05-08T02:09:07.813Z,4.32
2023-05-08T02:11:39.299Z,3.28
2023-05-08T02:14:09.105Z,2.90
2023-05-08T02:16:40.794Z,3.38
2023-05-08T02:19:10.459Z,3.13
2023-05-08T02:21:40.600Z,2.70
2023-05-08T02:24:10.259Z,3.50
2023-05-08T02:26:39.806Z,4.47
2023-05-08T02:29:09.202Z,2.72
2023-05-08T02:31:39.570Z,3.40
2023-05-08T02:34:11.279Z,2.65
2023-05-08T02:36:41.824Z,3.28
2023-05-08T02:39:14.394Z,2.58
2023-05-08T02:41:42.599Z,5.45
2023-05-08T02:44:11.233Z,3.40
2023-05-08T02:47:08.992Z,3.33
2023-05-08T02:49:49.244Z,5.78
2023-05-08T02:52:35.586Z,4.25
2023-05-08T02:55:15.507Z,2.85
2023-05-08T02:58:11.986Z,3.30
2023-05-08T03:00:49.530Z,2.75
2023-05-08T03:03:26.004Z,3.60
2023-05-08T03:06:00.051Z,2.55
2023-05-08T03:08:33.174Z,4.28
2023-05-08T03:11:09.001Z,2.78
2023-05-08T03:13:40.472Z,2.13
2023-05-08T03:16:13.540Z,2.50
2023-05-08T03:19:12.354Z,2.83
2023-05-08T03:21:43.580Z,1.75
2023-05-08T03:24:17.701Z,4.15
2023-05-08T03:26:46.272Z,2.90
2023-05-08T03:29:17.123Z,2.53
2023-05-08T03:31:45.580Z,3.15
2023-05-08T03:34:14.481Z,3.03
2023-05-08T03:36:43.058Z,2.80
2023-05-08T03:39:11.758Z,3.47
2023-05-08T03:41:40.842Z,3.55
2023-05-08T03:44:09.178Z,4.13
2023-05-08T03:46:38.321Z,2.78
2023-05-08T03:49:09.246Z,3.20
2023-05-08T03:51:40.698Z,3.00
2023-05-08T03:54:09.314Z,2.58
2023-05-08T03:56:37.246Z,2.92
2023-05-08T03:59:18.588Z,2.88
2023-05-08T04:01:59.702Z,3.55
2023-05-08T04:04:42.015Z,3.45
2023-05-08T04:07:35.782Z,4.18
2023-05-08T04:10:12.255Z,3.15
2023-05-08T04:12:52.050Z,2.97
2023-05-08T04:15:27.263Z,3.55
2023-05-08T04:18:04.879Z,5.13
2023-05-08T04:20:34.326Z,7.50
2023-05-08T04:23:04.728Z,11.52
2023-05-08T04:25:36.432Z,5.90
2023-05-08T04:28:06.312Z,5.05
2023-05-08T04:30:35.454Z,6.63
2023-05-08T04:33:05.495Z,6.18
2023-05-08T04:35:34.716Z,6.30
2023-05-08T04:38:04.114Z,3.58
2023-05-08T04:40:34.615Z,4.65
2023-05-08T04:43:03.654Z,4.20
2023-05-08T04:45:32.403Z,6.72
2023-05-08T04:48:00.323Z,5.05
2023-05-08T04:50:28.198Z,3.72
2023-05-08T04:52:57.303Z,5.72
2023-05-08T04:55:25.721Z,4.57
2023-05-08T04:57:53.666Z,6.35
2023-05-08T05:00:21.766Z,9.32
2023-05-08T05:02:50.102Z,9.25
2023-05-08T05:05:19.516Z,7.65
2023-05-08T05:07:47.514Z,7.28
2023-05-08T05:10:16.694Z,9.02
2023-05-08T05:12:44.602Z,6.80
2023-05-08T05:15:15.013Z,6.07
2023-05-08T05:17:43.129Z,6.82
2023-05-08T05:20:13.627Z,5.53
2023-05-08T05:22:42.046Z,4.93
2023-05-08T05:25:10.418Z,4.63
2023-05-08T05:27:39.862Z,4.35
2023-05-08T05:30:17.332Z,3.72
2023-05-08T05:32:45.540Z,3.60
2023-05-08T05:35:15.061Z,5.25
2023-05-08T05:37:43.574Z,8.93
2023-05-08T05:40:15.333Z,5.93
2023-05-08T05:42:49.144Z,5.07
2023-05-08T05:45:17.328Z,4.75
2023-05-08T05:48:10.827Z,5.60
2023-05-08T05:50:41.585Z,6.28
2023-05-08T05:53:12.129Z,8.13
2023-05-08T05:55:40.022Z,5.50
2023-05-08T05:58:09.405Z,5.50
2023-05-08T06:00:38.395Z,4.30
2023-05-08T06:03:06.639Z,7.88
2023-05-08T06:05:34.982Z,6.10
2023-05-08T06:08:03.123Z,6.00
2023-05-08T06:10:31.378Z,5.13
2023-05-08T06:13:00.070Z,14.75
2023-05-08T06:15:28.307Z,17.00
2023-05-08T06:17:56.131Z,7.07
2023-05-08T06:20:26.260Z,8.25
2023-05-08T06:22:55.070Z,5.45
2023-05-08T06:25:22.778Z,8.13
2023-05-08T06:27:50.796Z,7.22
2023-05-08T06:30:18.941Z,6.40
2023-05-08T06:32:46.757Z,7.50
2023-05-08T06:35:18.679Z,7.82
2023-05-08T06:37:47.056Z,7.00
2023-05-08T06:40:15.089Z,8.48
2023-05-08T06:42:43.068Z,9.18
2023-05-08T06:45:11.753Z,12.60
2023-05-08T06:47:41.108Z,19.75
2023-05-08T06:50:10.552Z,17.30
2023-05-08T06:52:41.166Z,18.83
2023-05-08T06:55:09.863Z,21.17
2023-05-08T06:57:38.186Z,14.63
2023-05-08T07:00:07.259Z,20.83
2023-05-08T07:02:45.530Z,11.52
2023-05-08T07:05:14.117Z,14.40
2023-05-08T07:07:43.075Z,17.15
2023-05-08T07:10:11.529Z,24.85
2023-05-08T07:12:41.376Z,35.33
2023-05-08T07:15:21.659Z,27.45
2023-05-08T07:23:20.222Z,23.13
2023-05-08T07:25:48.450Z,22.10
2023-05-08T07:28:19.141Z,38.83
2023-05-08T07:30:51.128Z,85.50
2023-05-08T07:33:20.079Z,118.57
2023-05-08T07:35:50.140Z,137.45
2023-05-08T07:38:18.488Z,157.27
2023-05-08T07:40:49.178Z,131.80
2023-05-08T07:43:17.367Z,143.15
2023-05-08T07:45:45.253Z,122.65
2023-05-08T07:48:13.137Z,102.20
2023-05-08T07:50:42.102Z,109.78
2023-05-08T07:53:11.424Z,142.43
2023-05-08T07:55:39.363Z,91.40
2023-05-08T07:58:08.582Z,70.03
2023-05-08T08:00:49.265Z,89.18
2023-05-08T08:03:22.120Z,68.95
2023-05-08T08:05:50.210Z,54.47
2023-05-08T08:08:18.217Z,39.50
2023-05-08T08:10:48.853Z,41.75
2023-05-08T08:13:18.117Z,57.17
2023-05-08T08:15:45.976Z,64.03
2023-05-08T08:18:14.347Z,52.78
2023-05-08T08:20:42.542Z,55.00
2023-05-08T08:23:10.674Z,52.03
2023-05-08T08:25:38.632Z,34.58
2023-05-08T08:28:07.691Z,26.83
2023-05-08T08:30:35.699Z,33.65
2023-05-08T08:33:03.993Z,21.27
2023-05-08T08:35:33.814Z,40.95
2023-05-08T08:38:02.460Z,47.42
2023-05-08T08:40:30.394Z,36.35
2023-05-08T08:42:58.434Z,33.10
2023-05-08T08:45:26.441Z,31.65
2023-05-08T08:47:56.676Z,23.20
2023-05-08T08:50:27.423Z,22.25
2023-05-08T08:53:00.145Z,19.08
2023-05-08T08:55:34.477Z,17.95
2023-05-08T08:58:23.448Z,20.42
2023-05-08T09:00:56.496Z,35.40
2023-05-08T09:03:27.534Z,31.40
2023-05-08T09:05:55.964Z,53.55
2023-05-08T09:08:23.977Z,48.58
2023-05-08T09:10:55.139Z,34.30
2023-05-08T09:13:23.422Z,38.08
2023-05-08T09:15:51.511Z,28.88
2023-05-08T09:18:19.693Z,45.00
2023-05-08T09:20:48.053Z,35.67
2023-05-08T09:23:17.586Z,43.03
2023-05-08T09:25:47.979Z,24.27
2023-05-08T09:28:21.317Z,21.35
2023-05-08T09:30:57.522Z,18.83
2023-05-08T09:33:27.556Z,18.60
2023-05-08T09:35:57.013Z,11.18
2023-05-08T09:38:36.110Z,8.18
2023-05-08T09:41:24.420Z,8.52
2023-05-08T09:44:07.157Z,8.23
2023-05-08T09:46:36.225Z,7.55
2023-05-08T09:49:04.567Z,7.50
2023-05-08T09:51:33.046Z,7.95
2023-05-08T09:54:04.500Z,7.65
2023-05-08T09:56:37.615Z,7.97
2023-05-08T09:59:22.698Z,13.60
2023-05-08T10:01:51.261Z,21.88
2023-05-08T10:04:38.480Z,23.58
2023-05-08T10:07:06.599Z,18.08
2023-05-08T10:10:01.674Z,23.95
2023-05-08T10:12:31.324Z,37.30
2023-05-08T10:15:22.546Z,14.38
2023-05-08T10:18:06.392Z,9.43
2023-05-08T10:20:55.811Z,11.27
2023-05-08T10:23:27.175Z,41.53
2023-05-08T10:26:19.191Z,91.55
2023-05-08T10:32:06.602Z,92.90
2023-05-08T10:35:10.934Z,83.28
2023-05-08T10:37:42.662Z,60.60
2023-05-08T10:40:25.839Z,58.60
2023-05-08T10:42:53.934Z,50.22
2023-05-08T10:45:21.706Z,41.15
2023-05-08T10:48:18.667Z,43.05
2023-05-08T10:51:10.934Z,30.17
2023-05-08T10:53:54.131Z,30.42
2023-05-08T10:56:29.357Z,22.40
2023-05-08T10:58:58.870Z,30.80
2023-05-08T11:01:28.499Z,29.88
2023-05-08T11:03:56.912Z,19.08
2023-05-08T11:06:49.374Z,17.00
2023-05-08T11:09:39.002Z,12.52
2023-05-08T11:12:17.628Z,11.00
2023-05-08T11:15:00.178Z,9.77
2023-05-08T11:17:29.089Z,10.00
2023-05-08T11:20:07.128Z,7.63
2023-05-08T11:22:37.196Z,9.77
2023-05-08T11:25:12.523Z,9.57
2023-05-08T11:27:49.501Z,17.60
2023-05-08T11:30:22.646Z,68.38
2023-05-08T11:33:17.671Z,109.95
2023-05-08T11:35:45.763Z,105.38
2023-05-08T11:38:36.214Z,108.28
2023-05-08T11:41:06.633Z,68.03
2023-05-08T11:43:36.323Z,85.43
2023-05-08T11:46:09.456Z,45.38
2023-05-08T11:48:37.474Z,27.98
2023-05-08T11:51:05.510Z,36.90
2023-05-08T11:53:38.905Z,25.75
2023-05-08T11:56:08.600Z,18.50
2023-05-08T11:58:37.918Z,17.15
2023-05-08T12:01:06.379Z,15.35
2023-05-08T12:03:35.265Z,11.90
2023-05-08T12:06:06.843Z,10.23
2023-05-08T12:08:42.283Z,14.27
2023-05-08T12:11:10.516Z,19.20
2023-05-08T12:13:46.631Z,36.20
2023-05-08T12:16:46.424Z,48.83
2023-05-08T12:19:39.916Z,41.35
2023-05-08T12:22:27.020Z,40.58
2023-05-08T12:25:06.113Z,30.23
2023-05-08T12:27:49.085Z,23.05
2023-05-08T12:30:19.128Z,17.70
2023-05-08T12:32:51.726Z,17.83
2023-05-08T12:35:20.665Z,16.05
2023-05-08T12:37:48.703Z,10.77
2023-05-08T12:40:45.408Z,9.30
2023-05-08T12:43:13.671Z,9.93
2023-05-08T12:45:43.697Z,6.60
2023-05-08T12:48:22.368Z,6.40
2023-05-08T12:50:50.482Z,4.97
2023-05-08T12:53:20.443Z,8.93
2023-05-08T12:55:59.462Z,8.40
2023-05-08T12:58:32.015Z,9.32
2023-05-08T13:01:18.909Z,14.57
2023-05-08T13:04:08.364Z,13.10
2023-05-08T13:06:37.549Z,8.05
2023-05-08T13:09:06.467Z,8.35
2023-05-08T13:11:34.626Z,5.40
2023-05-08T13:14:03.588Z,6.15
2023-05-08T13:16:42.856Z,4.40
2023-05-08T13:19:12.301Z,5.63
2023-05-08T13:21:41.514Z,5.03
2023-05-08T13:24:09.448Z,6.68
2023-05-08T13:26:37.330Z,7.65
2023-05-08T13:29:06.139Z,8.30
2023-05-08T13:31:34.906Z,6.22
2023-05-08T13:34:02.709Z,7.95
2023-05-08T13:36:31.997Z,6.95
2023-05-08T13:38:59.825Z,15.68
2023-05-08T13:41:27.814Z,8.45
2023-05-08T13:43:55.605Z,18.45
2023-05-08T13:46:24.911Z,17.73
2023-05-08T13:48:52.774Z,30.75
2023-05-08T13:51:20.704Z,13.23
2023-05-08T13:53:48.613Z,30.60
2023-05-08T13:56:16.459Z,17.55
2023-05-08T13:58:44.309Z,24.65
2023-05-08T14:01:25.648Z,21.80
2023-05-08T14:03:55.453Z,24.60
2023-05-08T14:06:24.154Z,17.42
2023-05-08T14:08:54.635Z,26.83
2023-05-08T14:11:24.828Z,27.15
2023-05-08T14:13:52.705Z,21.50
2023-05-08T14:16:20.912Z,20.60
2023-05-08T14:18:48.735Z,18.10
2023-05-08T14:21:17.589Z,17.92
2023-05-08T14:23:46.947Z,9.82
2023-05-08T14:26:15.293Z,10.57
2023-05-08T14:28:45.617Z,7.32
2023-05-08T14:31:15.728Z,15.43
2023-05-08T14:33:44.097Z,9.48
2023-05-08T14:36:11.850Z,11.80
2023-05-08T14:38:39.630Z,14.15
2023-05-08T14:41:08.100Z,13.40
2023-05-08T14:43:36.314Z,12.48
2023-05-08T14:46:04.155Z,8.85
2023-05-08T14:48:32.868Z,8.93
2023-05-08T14:51:01.401Z,8.13
2023-05-08T14:53:29.443Z,11.00
2023-05-08T14:56:00.106Z,5.55
2023-05-08T14:58:28.364Z,9.98
2023-05-08T15:00:56.736Z,13.93
2023-05-08T15:03:26.073Z,12.07
2023-05-08T15:05:54.308Z,14.85
2023-05-08T15:08:22.221Z,11.35
2023-05-08T15:10:50.005Z,12.38
2023-05-08T15:13:18.773Z,9.38
2023-05-08T15:15:47.052Z,12.93
2023-05-08T15:18:15.051Z,9.90
2023-05-08T15:20:43.687Z,9.57
2023-05-08T15:23:13.184Z,7.60
2023-05-08T15:25:41.045Z,8.60
2023-05-08T15:28:08.939Z,11.77
2023-05-08T15:30:37.040Z,8.15
2023-05-08T15:33:04.661Z,8.05
2023-05-08T15:35:32.704Z,9.10
2023-05-08T15:38:04.661Z,5.50
2023-05-08T15:40:33.476Z,5.45
2023-05-08T15:43:02.322Z,7.43
2023-05-08T15:45:30.190Z,11.05
2023-05-08T15:47:58.449Z,6.60
2023-05-08T15:50:28.742Z,7.88
2023-05-08T15:52:57.163Z,9.15
2023-05-08T15:55:24.895Z,6.65
2023-05-08T15:57:52.712Z,5.93
2023-05-08T16:00:23.116Z,5.40
2023-05-08T16:02:54.182Z,6.38
2023-05-08T16:05:22.668Z,11.02
2023-05-08T16:07:51.792Z,9.13
2023-05-08T16:10:19.795Z,12.75
2023-05-08T16:12:48.668Z,8.65
2023-05-08T16:15:16.526Z,9.35
2023-05-08T16:17:45.515Z,11.32
2023-05-08T16:20:13.688Z,9.25
2023-05-08T16:22:41.548Z,7.85
2023-05-08T16:25:10.900Z,7.60
2023-05-08T16:27:39.805Z,7.00
2023-05-08T16:30:08.841Z,6.97
2023-05-08T16:32:37.719Z,4.72
2023-05-08T16:35:07.229Z,5.68
2023-05-08T16:37:37.481Z,5.80
2023-05-08T16:40:08.148Z,6.63
2023-05-08T16:42:36.324Z,4.93
2023-05-08T16:45:08.498Z,6.47
2023-05-08T16:47:36.705Z,4.40
2023-05-08T16:50:05.405Z,6.88
2023-05-08T16:52:34.170Z,4.38
2023-05-08T16:55:02.049Z,5.32
2023-05-08T16:57:30.822Z,7.68
2023-05-08T16:59:58.735Z,7.18
2023-05-08T17:02:26.918Z,5.95
2023-05-08T17:04:54.662Z,6.30
2023-05-08T17:07:22.576Z,10.18
2023-05-08T17:09:55.672Z,8.27
2023-05-08T17:12:24.574Z,10.32
2023-05-08T17:14:53.914Z,8.45
2023-05-08T17:17:21.803Z,6.15
2023-05-08T17:19:49.745Z,8.82
2023-05-08T17:22:20.815Z,8.02
2023-05-08T17:24:50.002Z,7.03
2023-05-08T17:27:18.903Z,7.35
2023-05-08T17:29:49.689Z,11.00
2023-05-08T17:32:17.894Z,8.38
2023-05-08T17:34:45.526Z,11.30
2023-05-08T17:37:14.017Z,17.17
2023-05-08T17:39:41.759Z,19.85
2023-05-08T17:42:10.080Z,26.20
2023-05-08T17:44:38.668Z,15.85
2023-05-08T17:47:07.503Z,20.35
2023-05-08T17:49:36.032Z,17.17
2023-05-08T17:52:05.161Z,19.05
2023-05-08T17:54:34.653Z,20.52
2023-05-08T17:57:02.688Z,13.95
2023-05-08T17:59:30.928Z,11.85
2023-05-08T18:01:58.808Z,11.13
2023-05-08T18:04:26.760Z,10.00
2023-05-08T18:06:55.160Z,10.48
2023-05-08T18:09:23.058Z,9.88
2023-05-08T18:11:51.227Z,12.20
2023-05-08T18:14:20.940Z,8.55
2023-05-08T18:16:48.882Z,9.65
2023-05-08T18:19:16.782Z,9.48
2023-05-08T18:21:45.788Z,9.73
2023-05-08T18:24:19.459Z,8.02
2023-05-08T18:26:51.895Z,7.82
2023-05-08T18:29:32.446Z,8.32
2023-05-08T18:32:18.090Z,6.47
2023-05-08T18:35:15.880Z,10.30
2023-05-08T18:38:10.866Z,8.93
2023-05-08T18:41:10.119Z,9.77
2023-05-08T18:43:46.904Z,11.05
2023-05-08T18:46:23.312Z,19.92
2023-05-08T18:49:08.313Z,26.70
2023-05-08T18:51:51.256Z,17.60
2023-05-08T18:54:27.181Z,11.70
2023-05-08T18:56:55.198Z,16.23
2023-05-08T18:59:23.197Z,11.02
2023-05-08T19:01:51.581Z,10.05
2023-05-08T19:04:21.760Z,9.32
2023-05-08T19:06:49.644Z,8.52
2023-05-08T19:09:17.573Z,6.15
2023-05-08T19:11:45.489Z,10.10
2023-05-08T19:14:13.736Z,10.18
2023-05-08T19:16:41.586Z,6.13
2023-05-08T19:19:10.724Z,9.18
2023-05-08T19:21:38.673Z,8.13
2023-05-08T19:24:07.985Z,9.32
2023-05-08T19:26:35.840Z,11.57
2023-05-08T19:29:03.651Z,11.82
2023-05-08T19:31:32.885Z,13.73
2023-05-08T19:34:01.261Z,11.38
2023-05-08T19:36:30.443Z,14.18
2023-05-08T19:38:59.314Z,13.15
2023-05-08T19:41:29.146Z,12.80
2023-05-08T19:43:56.858Z,13.95
2023-05-08T19:46:24.925Z,10.43
2023-05-08T19:48:57.197Z,8.43
2023-05-08T19:51:25.205Z,9.73
2023-05-08T19:53:53.770Z,8.27
2023-05-08T19:56:21.924Z,8.10
2023-05-08T19:58:49.868Z,11.43
2023-05-08T20:01:18.698Z,7.70
2023-05-08T20:03:47.313Z,9.38
2023-05-08T20:06:16.238Z,8.68
2023-05-08T20:08:44.125Z,8.82
2023-05-08T20:11:13.227Z,19.10
2023-05-08T20:13:41.986Z,17.08
2023-05-08T20:16:11.778Z,24.05
2023-05-08T20:18:41.849Z,23.35
2023-05-08T20:21:10.936Z,16.23
2023-05-08T20:23:40.416Z,16.30
2023-05-08T20:26:10.656Z,18.95
2023-05-08T20:28:40.074Z,14.90
2023-05-08T20:31:08.497Z,15.23
2023-05-08T20:33:36.288Z,14.85
2023-05-08T20:36:04.502Z,17.38
2023-05-08T20:38:33.258Z,16.17
2023-05-08T20:41:01.554Z,13.82
2023-05-08T20:43:29.875Z,10.70
2023-05-08T20:46:00.400Z,9.63
2023-05-08T20:48:28.483Z,12.00
2023-05-08T20:50:57.237Z,10.02
2023-05-08T20:53:25.478Z,11.55
2023-05-08T20:56:00.749Z,9.52
2023-05-08T20:58:28.796Z,10.63
2023-05-08T21:00:57.175Z,7.95
2023-05-08T21:03:26.343Z,9.40
2023-05-08T21:05:56.086Z,10.77
2023-05-08T21:08:24.779Z,10.65
2023-05-08T21:10:53.169Z,8.80
2023-05-08T21:13:21.241Z,11.48
2023-05-08T21:15:52.723Z,13.27
2023-05-08T21:18:21.201Z,9.52
2023-05-08T21:20:51.742Z,10.93
2023-05-08T21:23:20.892Z,10.63
2023-05-08T21:25:50.003Z,13.07
2023-05-08T21:28:18.852Z,11.77
2023-05-08T21:30:47.122Z,13.70
2023-05-08T21:33:15.821Z,15.48
2023-05-08T21:35:43.907Z,13.32
2023-05-08T21:38:13.080Z,13.68
2023-05-08T21:40:40.903Z,14.63
2023-05-08T21:43:09.486Z,13.68
2023-05-08T21:45:39.043Z,11.70
2023-05-08T21:48:07.288Z,13.85
2023-05-08T21:50:35.075Z,11.20
2023-05-08T21:53:03.747Z,11.65
2023-05-08T21:55:32.456Z,11.95
2023-05-08T21:58:00.299Z,11.00
2023-05-08T22:00:28.120Z,9.70
2023-05-08T22:02:56.191Z,11.93
2023-05-08T22:05:24.841Z,9.65
2023-05-08T22:07:52.590Z,11.88
2023-05-08T22:10:21.714Z,9.73
2023-05-08T22:12:49.573Z,10.48
2023-05-08T22:15:29.167Z,11.82
2023-05-08T22:17:59.486Z,12.05
2023-05-08T22:20:27.473Z,10.40
2023-05-08T22:22:55.438Z,8.18
2023-05-08T22:25:23.777Z,8.32
2023-05-08T22:27:51.580Z,10.25
2023-05-08T22:30:19.456Z,10.90
2023-05-08T22:32:54.412Z,8.73
2023-05-08T22:35:24.785Z,8.95
2023-05-08T22:37:53.445Z,10.23
2023-05-08T22:40:22.381Z,7.82
2023-05-08T22:42:55.904Z,7.03
2023-05-08T22:45:23.930Z,8.52
2023-05-08T22:47:51.905Z,7.68
2023-05-08T22:50:19.775Z,5.90
2023-05-08T22:52:47.588Z,5.63
2023-05-08T22:55:16.615Z,9.52
2023-05-08T22:57:44.746Z,5.60
2023-05-08T23:00:13.364Z,5.22
2023-05-08T23:02:41.132Z,4.95
2023-05-08T23:05:09.405Z,5.03
2023-05-08T23:07:37.349Z,5.72
2023-05-08T23:10:05.514Z,7.22
2023-05-08T23:12:33.227Z,5.78
2023-05-08T23:15:01.212Z,6.10
2023-05-08T23:17:29.465Z,4.68
2023-05-08T23:19:57.286Z,5.20
2023-05-08T23:22:25.281Z,5.95
2023-05-08T23:24:53.188Z,4.90
2023-05-08T23:27:21.187Z,5.00
2023-05-08T23:29:49.016Z,5.43
2023-05-08T23:32:16.864Z,4.95
2023-05-08T23:34:44.938Z,4.38
2023-05-08T23:37:12.721Z,3.95
2023-05-08T23:39:41.644Z,7.55
2023-05-08T23:42:09.523Z,4.35
2023-05-08T23:44:37.559Z,7.70
2023-05-08T23:47:05.472Z,5.68
2023-05-08T23:49:33.323Z,5.78
2023-05-08T23:52:01.231Z,6.75
2023-05-08T23:54:29.051Z,6.22
2023-05-08T23:56:56.913Z,5.93
2023-05-08T23:59:24.914Z,7.38
